Time;durP1;ratioP1;P1;durP2;ratioP2;P2;SDS_P1;SDS_P2;PMS_P1;PMS_P2;Temp;Humidity;BMP_temperature;BMP_pressure;BME280_temperature;BME280_humidity;BME280_pressure;Samples;Min_cycle;Max_cycle;Signal;HPM_P1;HPM_P2
2022/03/11 00:01:36;;;;;;;10.20;5.40;;;;;;;0.71;48.24;100735.41;1761706;79;21014;-58
2022/03/11 00:04:05;;;;;;;8.65;4.72;;;;;;;0.59;48.31;100738.83;1772062;79;20956;-60
2022/03/11 00:06:33;;;;;;;10.53;5.50;;;;;;;0.56;48.50;100735.19;1777621;79;20963;-58
2022/03/11 00:09:02;;;;;;;10.40;5.42;;;;;;;0.54;48.52;100734.49;1775803;79;21039;-68
2022/03/11 00:11:30;;;;;;;11.18;5.58;;;;;;;0.27;49.09;100741.06;1774283;79;21489;-57
2022/03/11 00:13:57;;;;;;;11.25;4.80;;;;;;;0.09;48.93;100734.62;1775097;79;22402;-57
2022/03/11 00:16:26;;;;;;;11.48;4.83;;;;;;;0.13;48.68;100736.86;1768531;79;21515;-57
2022/03/11 00:18:53;;;;;;;9.30;5.03;;;;;;;0.10;48.37;100734.50;1770977;79;21035;-57
2022/03/11 00:21:21;;;;;;;10.68;5.03;;;;;;;0.07;48.34;100735.17;1778008;79;21089;-68
2022/03/11 00:23:48;;;;;;;13.20;5.80;;;;;;;-0.04;48.42;100732.05;1772897;79;21311;-56
2022/03/11 00:26:15;;;;;;;12.95;6.25;;;;;;;-0.03;48.26;100726.02;1777856;79;21058;-58
2022/03/11 00:28:42;;;;;;;12.50;5.40;;;;;;;0.00;48.08;100727.10;1779954;79;21010;-56
2022/03/11 00:31:10;;;;;;;12.95;5.62;;;;;;;0.10;47.51;100720.41;1778712;79;21027;-67
2022/03/11 00:33:37;;;;;;;13.43;6.12;;;;;;;-0.16;48.29;100730.31;1778155;79;21655;-67
2022/03/11 00:36:05;;;;;;;12.55;5.40;;;;;;;-0.16;48.40;100731.13;1770227;79;21212;-61
2022/03/11 00:38:33;;;;;;;12.50;5.10;;;;;;;-0.47;48.62;100740.02;1767819;79;20971;-56
2022/03/11 00:41:01;;;;;;;12.30;5.75;;;;;;;-1.30;50.71;100740.16;1775580;79;21018;-67
2022/03/11 00:43:28;;;;;;;12.93;5.53;;;;;;;-1.65;51.30;100741.50;1773564;79;21182;-63
2022/03/11 00:45:56;;;;;;;8.90;5.33;;;;;;;-1.80;52.01;100745.33;1779085;79;20975;-60
2022/03/11 00:48:24;;;;;;;13.15;6.25;;;;;;;-0.77;50.68;100740.25;1755830;81;21354;-57
2022/03/11 00:50:52;;;;;;;15.63;5.75;;;;;;;-0.61;50.06;100741.36;1756755;81;21105;-57
2022/03/11 00:53:19;;;;;;;13.43;6.47;;;;;;;-0.55;49.95;100745.64;1746315;81;21109;-59
2022/03/11 00:55:46;;;;;;;14.25;7.08;;;;;;;-0.44;49.65;100744.12;1753728;81;21492;-59
2022/03/11 00:58:15;;;;;;;11.55;6.78;;;;;;;-0.33;49.50;100739.94;1778702;79;21628;-58
2022/03/11 01:00:43;;;;;;;16.05;7.00;;;;;;;-0.27;49.59;100741.27;1782967;79;21820;-59
2022/03/11 01:03:11;;;;;;;13.48;5.92;;;;;;;-0.29;49.66;100734.97;1775130;79;21083;-59
2022/03/11 01:05:38;;;;;;;15.53;6.33;;;;;;;-0.17;49.43;100746.61;1764274;80;21089;-58
2022/03/11 01:08:06;;;;;;;11.50;5.80;;;;;;;-0.14;49.41;100741.29;1767646;80;21043;-63
2022/03/11 01:10:33;;;;;;;9.80;5.58;;;;;;;-0.26;49.47;100745.02;1761099;80;21106;-56
2022/03/11 01:13:02;;;;;;;13.93;6.05;;;;;;;-0.10;49.59;100753.79;1767636;80;20886;-62
2022/03/11 01:15:29;;;;;;;12.80;6.70;;;;;;;-0.99;50.74;100757.42;1754097;78;22455;-57
2022/03/11 01:17:57;;;;;;;13.88;6.50;;;;;;;-1.27;52.20;100752.76;1751533;80;21114;-67
2022/03/11 01:20:25;;;;;;;11.00;5.75;;;;;;;-1.02;51.72;100758.45;1771196;80;21126;-57
2022/03/11 01:22:54;;;;;;;12.07;6.28;;;;;;;-0.95;52.08;100756.78;1735890;81;21134;-68
2022/03/11 01:25:21;;;;;;;11.12;5.15;;;;;;;-1.19;52.83;100764.25;1725907;80;21866;-62
2022/03/11 01:27:49;;;;;;;13.65;6.37;;;;;;;-1.13;52.77;100753.66;1723966;82;20958;-69
2022/03/11 01:30:16;;;;;;;9.28;4.87;;;;;;;-1.10;52.49;100758.55;1768941;79;21015;-58
2022/03/11 01:32:45;;;;;;;12.53;6.50;;;;;;;-1.24;52.57;100762.80;1769843;80;21051;-59
2022/03/11 01:35:12;;;;;;;12.68;5.87;;;;;;;-1.15;52.44;100766.52;1761672;80;21004;-58
2022/03/11 01:37:41;;;;;;;12.47;4.80;;;;;;;-1.29;52.58;100764.84;1770836;79;21298;-68
2022/03/11 01:40:10;;;;;;;13.78;6.83;;;;;;;-1.35;52.72;100763.92;1764962;80;21126;-57
2022/03/11 01:42:37;;;;;;;12.85;5.97;;;;;;;-1.34;52.81;100764.73;1774571;78;21122;-69
2022/03/11 01:45:07;;;;;;;15.70;7.55;;;;;;;-1.22;52.38;100765.25;1762197;80;21093;-58
2022/03/11 01:47:34;;;;;;;11.85;5.85;;;;;;;-1.34;52.67;100765.55;1773152;80;21556;-58
2022/03/11 01:50:04;;;;;;;12.35;5.62;;;;;;;-1.40;52.99;100760.83;1771259;78;21156;-59
2022/03/11 01:52:31;;;;;;;13.03;5.25;;;;;;;-1.36;53.20;100759.73;1769141;78;21129;-63
2022/03/11 01:54:59;;;;;;;9.95;5.30;;;;;;;-1.39;53.23;100759.91;1769331;80;21145;-56
2022/03/11 01:57:26;;;;;;;11.20;6.17;;;;;;;-1.39;53.19;100766.30;1770638;80;21075;-57
2022/03/11 01:59:57;;;;;;;12.85;6.62;;;;;;;-0.26;50.80;100759.58;1770412;80;20972;-68
2022/03/11 02:02:25;;;;;;;12.10;6.45;;;;;;;-0.23;50.36;100764.47;1769413;80;21300;-58
2022/03/11 02:04:53;;;;;;;9.93;5.53;;;;;;;-0.11;50.02;100765.44;1761057;80;22444;-56
2022/03/11 02:07:21;;;;;;;13.93;5.22;;;;;;;0.00;49.78;100766.83;1757100;81;21059;-59
2022/03/11 02:09:49;;;;;;;18.20;7.53;;;;;;;0.09;49.51;100770.50;1755751;81;20960;-58
2022/03/11 02:12:34;;;;;;;14.73;6.33;;;;;;;0.20;49.44;100773.98;1754366;81;21081;-61
2022/03/11 02:15:04;;;;;;;11.75;6.35;;;;;;;0.17;49.57;100778.50;1754942;81;21590;-58
2022/03/11 02:17:33;;;;;;;13.50;5.28;;;;;;;0.14;49.64;100775.67;1742954;81;21446;-57
2022/03/11 02:20:01;;;;;;;15.03;6.58;;;;;;;0.26;49.68;100770.64;1733347;81;21089;-66
2022/03/11 02:22:29;;;;;;;11.48;5.87;;;;;;;0.43;49.45;100772.42;1748835;81;21099;-57
2022/03/11 02:24:57;;;;;;;11.28;5.40;;;;;;;0.30;49.61;100782.33;1757746;81;20954;-56
2022/03/11 02:27:24;;;;;;;13.68;6.12;;;;;;;0.48;49.45;100787.02;1757756;81;21954;-57
2022/03/11 02:29:52;;;;;;;12.23;6.22;;;;;;;0.59;49.17;100793.17;1756814;81;21582;-71
2022/03/11 02:32:19;;;;;;;9.90;5.70;;;;;;;0.65;49.08;100792.30;1748769;81;21525;-56
2022/03/11 02:34:47;;;;;;;11.95;6.47;;;;;;;0.45;49.23;100795.39;1759022;81;21062;-59
2022/03/11 02:37:16;;;;;;;14.68;7.03;;;;;;;0.46;49.28;100791.92;1756404;81;21026;-56
2022/03/11 02:39:44;;;;;;;15.68;6.53;;;;;;;0.41;49.35;100796.52;1737861;81;21282;-68
2022/03/11 02:42:11;;;;;;;10.15;5.42;;;;;;;0.39;49.28;100793.26;1747807;81;22577;-57
2022/03/11 02:44:40;;;;;;;12.40;6.40;;;;;;;0.58;48.81;100788.51;1754565;81;21113;-58
2022/03/11 02:47:08;;;;;;;15.63;6.05;;;;;;;0.63;48.82;100788.18;1755226;81;20982;-56
2022/03/11 02:49:37;;;;;;;13.28;6.67;;;;;;;0.62;48.65;100782.23;1757294;81;21581;-59
2022/03/11 02:52:05;;;;;;;11.93;6.15;;;;;;;0.61;48.68;100785.73;1748246;81;21124;-58
2022/03/11 02:54:34;;;;;;;13.75;6.03;;;;;;;0.61;48.61;100785.73;1741331;81;21084;-56
2022/03/11 02:57:02;;;;;;;12.68;6.83;;;;;;;0.73;48.48;100784.06;1747881;81;21059;-61
2022/03/11 02:59:29;;;;;;;18.35;8.20;;;;;;;0.75;48.43;100782.66;1750808;81;21513;-58
2022/03/11 03:01:58;;;;;;;14.33;6.87;;;;;;;0.61;48.47;100783.17;1744849;81;21006;-64
2022/03/11 03:04:26;;;;;;;13.58;6.90;;;;;;;0.66;48.39;100791.36;1752011;81;21245;-57
2022/03/11 03:06:55;;;;;;;11.90;5.60;;;;;;;-0.32;49.45;100792.80;1760197;81;21076;-60
2022/03/11 03:09:22;;;;;;;13.80;6.58;;;;;;;0.26;50.36;100788.12;1759244;81;21144;-58
2022/03/11 03:11:50;;;;;;;12.82;6.70;;;;;;;0.61;49.22;100793.43;1744251;81;21038;-69
2022/03/11 03:14:17;;;;;;;10.88;5.30;;;;;;;-0.74;51.21;100801.50;1756242;81;21082;-58
2022/03/11 03:16:44;;;;;;;13.70;6.40;;;;;;;-0.86;52.01;100803.09;1747374;81;21134;-58
2022/03/11 03:19:14;;;;;;;12.93;6.28;;;;;;;-0.83;52.38;100797.80;1746064;81;21001;-60
2022/03/11 03:21:41;;;;;;;14.60;6.83;;;;;;;-0.86;52.70;100803.56;1733224;81;21162;-68
2022/03/11 03:24:09;;;;;;;10.93;5.70;;;;;;;-0.77;52.69;100797.84;1756165;81;21108;-60
2022/03/11 03:26:38;;;;;;;13.50;6.42;;;;;;;-0.83;52.72;100802.91;1753822;81;21120;-57
2022/03/11 03:29:05;;;;;;;12.05;5.72;;;;;;;-0.75;52.61;100801.97;1756341;81;21484;-57
2022/03/11 03:31:34;;;;;;;13.48;6.17;;;;;;;-0.69;52.66;100807.61;1736363;81;21045;-67
2022/03/11 03:34:03;;;;;;;13.45;6.87;;;;;;;-0.69;52.70;100808.88;1757310;81;21037;-59
2022/03/11 03:36:31;;;;;;;14.15;6.17;;;;;;;0.53;50.72;100805.97;1747773;81;21014;-59
2022/03/11 03:38:59;;;;;;;10.00;5.45;;;;;;;-0.18;51.11;100814.16;1758857;81;21782;-58
2022/03/11 03:41:27;;;;;;;10.63;5.58;;;;;;;-0.47;51.74;100813.00;1756896;81;21141;-62
2022/03/11 03:43:57;;;;;;;12.20;5.37;;;;;;;-0.44;51.96;100815.38;1745887;81;21084;-59
2022/03/11 03:46:24;;;;;;;13.22;6.35;;;;;;;-0.08;52.34;100821.58;1747223;81;21033;-58
2022/03/11 03:48:51;;;;;;;11.33;6.15;;;;;;;0.66;50.05;100823.43;1756961;81;20997;-59
2022/03/11 03:51:19;;;;;;;18.73;7.53;;;;;;;0.90;49.49;100832.92;1757301;81;21042;-59
2022/03/11 03:53:46;;;;;;;12.43;5.47;;;;;;;1.04;48.98;100841.77;1749767;81;21641;-67
2022/03/11 03:56:15;;;;;;;12.23;5.65;;;;;;;1.05;48.88;100845.16;1748942;81;21056;-58
2022/03/11 03:58:42;;;;;;;11.63;5.75;;;;;;;1.06;48.88;100847.63;1755319;81;20975;-60
2022/03/11 04:01:10;;;;;;;11.03;5.70;;;;;;;-0.03;50.36;100850.31;1758695;79;21023;-68
2022/03/11 04:03:38;;;;;;;11.85;6.87;;;;;;;-0.30;51.50;100858.86;1770770;78;21615;-56
2022/03/11 04:06:05;;;;;;;11.35;5.87;;;;;;;-0.29;51.93;100867.36;1783760;78;22532;-57
2022/03/11 04:08:33;;;;;;;12.60;6.08;;;;;;;0.81;50.39;100862.62;1778796;79;21382;-58
2022/03/11 04:11:02;;;;;;;11.93;5.75;;;;;;;0.04;51.20;100868.22;1785702;79;21054;-67
2022/03/11 04:13:29;;;;;;;12.18;6.47;;;;;;;-0.14;51.98;100874.53;1764497;78;21066;-58
2022/03/11 04:15:56;;;;;;;11.53;6.22;;;;;;;0.02;52.34;100876.45;1772995;79;21065;-64
2022/03/11 04:18:25;;;;;;;14.38;6.00;;;;;;;0.11;52.37;100878.41;1783749;78;22190;-58
2022/03/11 04:20:53;;;;;;;14.73;6.60;;;;;;;0.08;52.42;100876.53;1783496;78;20948;-58
2022/03/11 04:23:21;;;;;;;12.03;6.22;;;;;;;0.06;52.74;100876.61;1772921;78;21136;-59
2022/03/11 04:25:48;;;;;;;12.20;6.55;;;;;;;0.09;52.98;100882.01;1778360;78;21452;-70
2022/03/11 04:28:15;;;;;;;12.78;6.40;;;;;;;0.09;52.80;100887.14;1767624;78;21085;-59
2022/03/11 04:30:42;;;;;;;11.85;6.35;;;;;;;-0.26;53.47;100885.11;1772225;78;21163;-58
2022/03/11 04:33:11;;;;;;;14.38;6.53;;;;;;;0.16;52.92;100893.05;1784576;78;20950;-59
2022/03/11 04:35:39;;;;;;;13.43;6.95;;;;;;;0.63;52.99;100892.09;1764896;78;21058;-57
2022/03/11 04:38:07;;;;;;;12.43;6.58;;;;;;;1.11;51.53;100903.80;1774198;78;21129;-57
2022/03/11 04:40:34;;;;;;;10.60;5.00;;;;;;;1.11;50.74;100911.03;1773751;79;21335;-59
2022/03/11 04:43:01;;;;;;;11.88;5.70;;;;;;;0.87;50.59;100916.55;1778912;79;21518;-62
2022/03/11 04:45:29;;;;;;;11.80;5.30;;;;;;;1.01;50.92;100916.43;1770757;78;20991;-58
2022/03/11 04:47:56;;;;;;;10.38;4.67;;;;;;;0.99;50.87;100920.05;1773407;79;20969;-62
2022/03/11 04:50:24;;;;;;;15.53;5.92;;;;;;;1.17;50.51;100899.50;1775607;79;21563;-61
2022/03/11 04:52:52;;;;;;;11.65;5.37;;;;;;;1.20;50.27;100913.41;1773905;79;21041;-59
2022/03/11 04:55:20;;;;;;;10.03;6.28;;;;;;;1.05;50.38;100922.99;1774246;78;21158;-68
2022/03/11 04:57:50;;;;;;;12.98;5.78;;;;;;;1.33;50.25;100915.97;1772900;78;21953;-58
2022/03/11 05:00:21;;;;;;;12.15;5.87;;;;;;;1.09;51.53;100927.45;1752652;79;21106;-59
2022/03/11 05:02:48;;;;;;;13.13;6.95;;;;;;;1.34;52.58;100926.59;1759354;79;21035;-56
2022/03/11 05:05:16;;;;;;;10.05;4.92;;;;;;;1.19;53.32;100924.63;1822051;77;21001;-64
2022/03/11 05:07:43;;;;;;;11.93;5.75;;;;;;;1.24;53.66;100924.30;1821267;77;21388;-62
2022/03/11 05:10:14;;;;;;;12.90;5.97;;;;;;;1.34;53.51;100935.11;1820786;77;21037;-58
2022/03/11 05:12:41;;;;;;;11.53;5.53;;;;;;;1.53;53.17;100935.94;1819263;78;21531;-57
2022/03/11 05:15:10;;;;;;;12.60;5.80;;;;;;;1.63;53.86;100935.66;1820774;78;21313;-68
2022/03/11 05:17:37;;;;;;;12.28;5.62;;;;;;;1.92;53.29;100940.45;1821182;78;21486;-62
2022/03/11 05:20:06;;;;;;;11.05;5.12;;;;;;;2.15;52.65;100940.88;1823009;77;22522;-62
2022/03/11 05:22:34;;;;;;;15.55;6.28;;;;;;;2.03;52.51;100946.11;1817194;78;21125;-57
2022/03/11 05:25:01;;;;;;;10.88;5.90;;;;;;;2.21;51.49;100949.11;1821496;77;21008;-62
2022/03/11 05:27:29;;;;;;;11.85;5.92;;;;;;;2.41;50.42;100940.27;1818626;78;21520;-73
2022/03/11 05:29:59;;;;;;;10.95;5.58;;;;;;;2.45;49.39;100955.02;1804632;77;21077;-63
2022/03/11 05:32:27;;;;;;;11.20;5.35;;;;;;;2.66;48.51;100953.90;1777921;77;22185;-59
2022/03/11 05:34:54;;;;;;;11.90;5.22;;;;;;;2.66;48.51;100953.90;1802979;78;20962;-62
2022/03/11 05:37:22;;;;;;;12.85;6.25;;;;;;;2.77;47.41;100954.39;1810390;78;21538;-59
2022/03/11 05:39:51;;;;;;;10.72;5.12;;;;;;;2.78;47.31;100956.02;1808261;77;21077;-66
2022/03/11 05:42:19;;;;;;;13.93;5.85;;;;;;;3.09;46.85;100965.63;1801255;77;22027;-59
2022/03/11 05:44:47;;;;;;;10.53;5.28;;;;;;;3.11;46.81;100963.77;1768919;79;21263;-59
2022/03/11 05:47:14;;;;;;;10.32;5.65;;;;;;;3.31;45.74;100963.52;1779761;77;21060;-60
2022/03/11 05:49:41;;;;;;;15.68;6.12;;;;;;;3.30;45.23;100956.73;1774964;78;22112;-72
2022/03/11 05:52:09;;;;;;;11.85;6.22;;;;;;;2.23;45.67;100960.09;1792013;77;21104;-60
2022/03/11 05:54:37;;;;;;;9.48;4.87;;;;;;;1.83;45.76;100968.11;1762098;79;22701;-61
2022/03/11 05:57:05;;;;;;;10.23;5.35;;;;;;;1.79;46.17;100970.08;1791701;77;22109;-74
2022/03/11 05:59:34;;;;;;;14.83;6.85;;;;;;;2.07;45.57;100962.48;1798431;77;20993;-61
2022/03/11 06:02:01;;;;;;;10.90;5.37;;;;;;;2.12;45.22;100952.70;1807141;78;20939;-65
2022/03/11 06:04:29;;;;;;;13.38;5.58;;;;;;;2.18;44.95;100972.81;1789975;79;21156;-60
2022/03/11 06:06:56;;;;;;;9.85;5.55;;;;;;;2.37;44.59;100967.62;1806929;78;21003;-61
2022/03/11 06:09:24;;;;;;;11.18;5.47;;;;;;;2.40;44.53;100957.11;1821502;78;21140;-71
2022/03/11 06:11:53;;;;;;;11.65;5.30;;;;;;;2.52;44.25;100960.53;1822727;77;21520;-61
2022/03/11 06:14:22;;;;;;;10.58;5.47;;;;;;;2.65;44.02;100953.08;1818523;77;21003;-65
2022/03/11 06:16:50;;;;;;;9.93;4.85;;;;;;;2.85;43.87;100948.19;1821919;77;21077;-60
2022/03/11 06:19:20;;;;;;;9.08;5.05;;;;;;;2.92;43.90;100960.95;1817511;76;21551;-67
2022/03/11 06:21:47;;;;;;;12.15;5.03;;;;;;;3.85;42.62;100960.59;1816447;76;22402;-60
2022/03/11 06:24:16;;;;;;;12.47;5.60;;;;;;;3.09;42.73;100965.63;1819289;77;21052;-77
2022/03/11 06:26:43;;;;;;;12.05;5.37;;;;;;;3.25;42.61;100957.53;1821037;76;20966;-59
2022/03/11 06:29:10;;;;;;;12.18;5.50;;;;;;;3.15;42.22;100965.16;1822149;77;21285;-61
2022/03/11 06:31:38;;;;;;;13.20;5.28;;;;;;;3.06;42.27;100966.33;1817933;77;21050;-60
2022/03/11 06:34:05;;;;;;;11.45;5.40;;;;;;;3.09;42.67;100956.61;1820359;77;22006;-59
2022/03/11 06:36:34;;;;;;;11.45;5.28;;;;;;;3.90;41.79;100953.30;1789627;79;21061;-75
2022/03/11 06:39:02;;;;;;;13.22;5.58;;;;;;;4.21;41.28;100989.09;1814511;77;20998;-60
2022/03/11 06:41:29;;;;;;;10.98;4.58;;;;;;;3.89;41.08;100954.24;1820742;77;21013;-64
2022/03/11 06:43:57;;;;;;;12.05;5.78;;;;;;;4.04;40.80;100963.33;1817658;77;21070;-60
2022/03/11 06:46:24;;;;;;;9.58;4.95;;;;;;;4.32;40.52;100954.67;1822623;77;21930;-67
2022/03/11 06:48:52;;;;;;;8.08;4.78;;;;;;;5.88;38.59;100945.25;1822370;77;21081;-61
2022/03/11 06:51:22;;;;;;;9.18;5.10;;;;;;;6.34;38.54;100930.81;1819612;77;21666;-67
2022/03/11 06:53:49;;;;;;;9.18;5.15;;;;;;;6.64;37.13;100937.58;1819853;77;20900;-58
2022/03/11 06:56:16;;;;;;;11.83;5.28;;;;;;;7.03;37.11;100931.77;1818774;77;20997;-62
2022/03/11 06:58:43;;;;;;;10.88;5.30;;;;;;;7.58;36.00;100920.55;1821277;77;21237;-61
2022/03/11 07:01:11;;;;;;;8.68;5.92;;;;;;;7.90;35.69;100930.41;1822916;77;21050;-59
2022/03/11 07:03:39;;;;;;;10.93;5.12;;;;;;;8.00;35.81;100932.94;1822508;77;21004;-63
2022/03/11 07:06:07;;;;;;;8.73;5.10;;;;;;;7.75;34.64;100937.09;1818073;78;21521;-69
2022/03/11 07:08:35;;;;;;;7.65;4.95;;;;;;;7.65;34.77;100936.33;1819614;76;21053;-63
2022/03/11 07:11:03;;;;;;;8.55;4.87;;;;;;;7.47;34.71;100941.03;1817197;77;21279;-62
2022/03/11 07:13:31;;;;;;;9.08;4.50;;;;;;;7.39;34.81;100944.84;1812646;76;21705;-63
2022/03/11 07:15:59;;;;;;;10.20;4.92;;;;;;;6.60;35.22;100949.66;1809357;77;21665;-64
2022/03/11 07:18:26;;;;;;;8.18;4.60;;;;;;;6.50;35.25;100944.00;1791931;79;21050;-63
2022/03/11 07:20:54;;;;;;;9.25;4.75;;;;;;;6.16;35.77;100938.94;1820485;77;21539;-62
2022/03/11 07:23:23;;;;;;;12.13;5.95;;;;;;;5.73;36.44;100953.07;1823940;78;21061;-71
2022/03/11 07:25:50;;;;;;;11.75;6.03;;;;;;;5.73;36.75;100956.95;1809582;78;21096;-61
2022/03/11 07:28:20;;;;;;;10.58;4.78;;;;;;;6.00;36.90;100940.79;1788159;77;21013;-64
2022/03/11 07:30:47;;;;;;;8.95;4.87;;;;;;;6.23;36.43;100938.73;1788212;79;20983;-61
2022/03/11 07:33:14;;;;;;;13.00;6.28;;;;;;;6.13;38.02;100927.08;1815521;77;21155;-62
2022/03/11 07:35:41;;;;;;;12.70;6.75;;;;;;;6.02;37.71;100935.83;1821823;78;21271;-62
2022/03/11 07:38:09;;;;;;;9.78;5.10;;;;;;;6.28;37.31;100937.35;1814161;77;21029;-65
2022/03/11 07:40:38;;;;;;;9.95;5.35;;;;;;;6.40;37.01;100935.91;1827555;77;20978;-62
2022/03/11 07:43:09;;;;;;;10.55;5.10;;;;;;;6.30;36.96;100930.77;1823442;77;21049;-63
2022/03/11 07:45:36;;;;;;;9.70;5.55;;;;;;;6.06;36.75;100942.37;1818884;77;21096;-72
2022/03/11 07:48:03;;;;;;;12.18;5.47;;;;;;;5.98;37.40;100935.73;1787174;78;21451;-63
2022/03/11 07:50:32;;;;;;;10.10;5.53;;;;;;;5.12;37.83;100955.30;1816356;77;21435;-64
2022/03/11 07:52:59;;;;;;;9.25;5.35;;;;;;;4.64;38.63;100947.66;1819002;76;21111;-61
2022/03/11 07:55:26;;;;;;;9.90;5.62;;;;;;;4.86;39.63;100947.98;1784048;77;21697;-62
2022/03/11 07:57:55;;;;;;;9.33;4.70;;;;;;;5.02;39.13;100952.66;1786355;77;22365;-62
2022/03/11 08:00:23;;;;;;;8.68;4.15;;;;;;;4.81;40.00;100964.34;1788455;77;21184;-61
2022/03/11 08:02:51;;;;;;;11.55;5.67;;;;;;;4.68;39.87;100964.19;1792298;77;21005;-62
2022/03/11 08:05:19;;;;;;;9.50;4.92;;;;;;;4.93;40.07;100965.08;1808146;78;21501;-64
2022/03/11 08:07:50;;;;;;;8.83;4.65;;;;;;;5.08;40.33;100961.69;1803704;78;21035;-59
2022/03/11 08:10:19;;;;;;;8.03;4.72;;;;;;;5.13;40.21;100961.62;1819068;77;21002;-68
2022/03/11 08:12:46;;;;;;;12.75;5.20;;;;;;;5.18;39.30;100939.25;1817549;77;21821;-61
2022/03/11 08:15:14;;;;;;;8.33;5.10;;;;;;;5.08;39.39;100958.62;1819180;78;21023;-61
2022/03/11 08:17:42;;;;;;;8.53;4.67;;;;;;;5.77;40.09;100955.73;1805515;78;21053;-65
2022/03/11 08:20:10;;;;;;;8.35;5.05;;;;;;;6.58;37.80;100940.23;1811113;78;21555;-62
2022/03/11 08:22:37;;;;;;;10.13;4.78;;;;;;;6.70;41.09;100941.36;1805150;77;21459;-62
2022/03/11 08:25:08;;;;;;;10.03;5.47;;;;;;;6.80;38.98;100942.16;1804802;77;22177;-63
2022/03/11 08:27:40;;;;;;;8.75;4.80;;;;;;;7.02;37.72;100950.88;1802028;77;21042;-63
2022/03/11 08:30:08;;;;;;;9.80;5.05;;;;;;;7.11;38.46;100947.08;1780211;79;21009;-69
2022/03/11 08:32:39;;;;;;;8.70;4.80;;;;;;;7.32;37.52;100954.16;1791579;78;21062;-60
2022/03/11 08:35:09;;;;;;;7.53;4.50;;;;;;;7.48;36.33;100953.03;1812723;78;20978;-61
2022/03/11 08:37:37;;;;;;;10.43;5.75;;;;;;;7.47;36.10;100938.44;1814003;78;21985;-63
2022/03/11 08:40:06;;;;;;;12.23;5.80;;;;;;;7.40;38.12;100949.54;1789580;79;20973;-60
2022/03/11 08:42:34;;;;;;;9.73;5.35;;;;;;;7.79;37.93;100941.02;1786130;79;20967;-62
2022/03/11 08:45:02;;;;;;;8.18;4.70;;;;;;;7.97;37.03;100937.12;1807723;78;21031;-63
2022/03/11 08:47:30;;;;;;;8.78;4.75;;;;;;;7.98;37.41;100946.05;1801089;77;21002;-60
2022/03/11 08:49:57;;;;;;;8.38;4.60;;;;;;;7.85;38.46;100940.92;1817708;78;21338;-61
2022/03/11 08:52:26;;;;;;;10.75;5.75;;;;;;;7.64;37.28;100964.06;1815440;77;21029;-71
2022/03/11 08:54:53;;;;;;;8.28;5.00;;;;;;;7.26;37.19;100964.61;1811892;78;21054;-60
2022/03/11 08:57:24;;;;;;;9.80;5.90;;;;;;;5.89;42.38;100970.17;1814079;78;20946;-71
2022/03/11 08:59:52;;;;;;;11.03;5.87;;;;;;;5.89;42.31;100966.77;1813713;77;21568;-61
2022/03/11 09:02:21;;;;;;;9.83;5.65;;;;;;;5.84;41.34;100969.77;1813663;77;21234;-60
2022/03/11 09:04:48;;;;;;;10.63;4.62;;;;;;;6.82;39.51;100954.51;1820091;77;20972;-62
2022/03/11 09:07:17;;;;;;;10.72;6.22;;;;;;;7.35;37.79;100979.81;1829292;77;22436;-66
2022/03/11 09:09:46;;;;;;;11.53;6.17;;;;;;;7.41;38.24;100967.54;1822647;78;21064;-70
2022/03/11 09:12:15;;;;;;;11.18;5.40;;;;;;;6.65;38.41;100975.95;1790047;78;21101;-61
2022/03/11 09:14:42;;;;;;;8.08;4.42;;;;;;;6.38;39.17;100959.84;1816576;77;21595;-72
2022/03/11 09:17:10;;;;;;;9.93;5.12;;;;;;;5.89;38.24;100966.77;1817624;77;21054;-61
2022/03/11 09:19:38;;;;;;;7.42;4.10;;;;;;;6.55;38.16;100967.73;1819191;77;21084;-60
2022/03/11 09:22:05;;;;;;;8.75;4.50;;;;;;;6.95;37.37;100974.43;1825634;77;21010;-61
2022/03/11 09:24:33;;;;;;;9.98;5.42;;;;;;;6.25;37.26;100976.94;1788495;78;21136;-71
2022/03/11 09:27:00;;;;;;;8.65;5.03;;;;;;;6.11;38.77;100979.48;1803138;78;22042;-62
2022/03/11 09:29:30;;;;;;;10.03;5.55;;;;;;;7.29;37.77;100970.00;1819449;77;21006;-59
2022/03/11 09:31:57;;;;;;;11.28;5.28;;;;;;;7.71;36.82;100957.81;1818510;77;21167;-61
2022/03/11 09:34:26;;;;;;;11.78;5.75;;;;;;;7.75;36.45;100972.13;1827610;78;21072;-60
2022/03/11 09:36:55;;;;;;;10.32;5.50;;;;;;;7.68;36.64;100973.66;1826485;76;20972;-62
2022/03/11 09:39:24;;;;;;;12.75;7.42;;;;;;;7.70;36.61;100973.05;1828780;77;21234;-63
2022/03/11 09:41:53;;;;;;;9.83;5.40;;;;;;;7.76;37.73;100968.55;1819863;77;20991;-61
2022/03/11 09:44:21;;;;;;;10.70;5.78;;;;;;;8.19;36.55;100962.63;1774802;79;21104;-59
2022/03/11 09:46:51;;;;;;;12.18;6.58;;;;;;;8.33;36.07;100982.05;1823789;77;21024;-72
2022/03/11 09:49:18;;;;;;;14.40;7.67;;;;;;;8.09;36.61;100976.66;1825855;77;21013;-62
2022/03/11 09:51:48;;;;;;;12.85;6.25;;;;;;;8.22;35.33;100966.23;1828099;78;22280;-71
2022/03/11 09:54:15;;;;;;;9.95;5.15;;;;;;;8.24;35.97;100972.08;1825964;78;22093;-58
2022/03/11 09:56:43;;;;;;;8.10;5.00;;;;;;;8.00;35.92;100964.91;1829590;77;20957;-66
2022/03/11 09:59:12;;;;;;;10.03;5.17;;;;;;;7.65;36.04;100970.06;1818653;77;21545;-61
2022/03/11 10:01:41;;;;;;;10.45;5.60;;;;;;;7.49;36.33;100972.81;1828372;77;21096;-64
2022/03/11 10:04:08;;;;;;;9.30;4.35;;;;;;;7.34;37.30;100979.45;1765347;79;21288;-59
2022/03/11 10:06:44;;;;;;;8.65;4.28;;;;;;;7.33;36.44;100967.94;1830858;77;20872;-59
2022/03/11 10:09:23;;;;;;;8.58;4.78;;;;;;;7.18;36.32;100965.81;1805150;77;21057;-59
2022/03/11 10:12:00;;;;;;;7.47;4.00;;;;;;;7.06;37.16;100976.03;1831665;77;21050;-59
2022/03/11 10:14:32;;;;;;;9.20;4.87;;;;;;;7.28;36.77;100978.75;1810487;77;21095;-58
2022/03/11 10:17:03;;;;;;;11.12;5.47;;;;;;;7.47;36.61;100987.73;1826613;77;20938;-63
2022/03/11 10:19:34;;;;;;;8.38;4.42;;;;;;;7.52;36.74;100973.83;1800386;78;20986;-63
2022/03/11 10:22:05;;;;;;;9.70;4.97;;;;;;;7.66;36.85;100975.61;1830690;77;20962;-56
2022/03/11 10:24:34;;;;;;;9.50;4.60;;;;;;;7.86;36.65;100971.91;1788195;78;20974;-68
2022/03/11 10:27:03;;;;;;;8.18;4.25;;;;;;;7.93;36.10;100974.25;1790685;77;21000;-64
2022/03/11 10:29:34;;;;;;;8.90;4.85;;;;;;;7.75;35.33;100959.14;1791937;78;22122;-60
2022/03/11 10:32:03;;;;;;;8.78;4.70;;;;;;;7.72;35.27;100967.22;1796700;78;21042;-58
2022/03/11 10:34:35;;;;;;;9.60;5.00;;;;;;;7.45;35.30;100970.17;1779516;79;20950;-63
2022/03/11 10:37:09;;;;;;;9.98;5.22;;;;;;;7.59;36.29;100981.85;1801333;77;21067;-64
2022/03/11 10:39:39;;;;;;;9.65;6.08;;;;;;;7.60;36.16;100970.50;1813353;78;21459;-57
2022/03/11 10:42:20;;;;;;;9.10;4.83;;;;;;;7.59;36.60;100966.77;1820785;77;21259;-68
2022/03/11 10:45:00;;;;;;;8.35;4.80;;;;;;;7.90;35.54;100957.67;1793299;77;21490;-57
2022/03/11 10:47:39;;;;;;;7.22;4.05;;;;;;;7.67;35.38;100956.47;1783643;79;21244;-57
2022/03/11 10:50:14;;;;;;;8.20;4.80;;;;;;;7.43;35.47;100967.41;1795171;77;21699;-59
2022/03/11 10:52:44;;;;;;;8.13;5.00;;;;;;;7.32;37.00;100960.64;1794594;77;21121;-62
2022/03/11 10:55:23;;;;;;;8.93;4.35;;;;;;;7.76;36.49;100964.66;1794426;77;21942;-59
2022/03/11 10:57:56;;;;;;;10.63;4.30;;;;;;;8.22;36.48;100978.38;1793202;79;21068;-59
2022/03/11 11:00:28;;;;;;;7.50;4.85;;;;;;;8.04;34.70;100960.23;1828611;77;20957;-58
2022/03/11 11:02:55;;;;;;;;;;;;;;;7.93;35.81;100969.06;1820024;77;21073;-58
2022/03/11 11:05:23;;;;;;;11.05;6.25;;;;;;;8.13;35.83;100966.30;1790295;78;20224;-58
2022/03/11 11:07:51;;;;;;;11.85;6.60;;;;;;;8.12;35.08;100967.28;1798795;78;22960;-59
2022/03/11 11:10:21;;;;;;;9.28;4.80;;;;;;;8.22;35.85;100974.48;1785372;78;21232;-60
2022/03/11 11:12:49;;;;;;;12.68;6.00;;;;;;;8.13;34.59;100976.69;1763794;79;21074;-60
2022/03/11 11:15:16;;;;;;;10.90;6.40;;;;;;;7.72;35.24;100971.11;1785717;80;21450;-59
2022/03/11 11:17:46;;;;;;;13.58;7.22;;;;;;;7.74;36.18;100964.01;1789094;80;22199;-59
2022/03/11 11:20:39;;;;;;;13.90;5.97;;;;;;;7.83;35.34;100963.59;1763009;80;21272;-62
2022/03/11 11:23:09;;;;;;;14.65;6.70;;;;;;;7.77;35.17;100971.51;1769016;80;20959;-58
2022/03/11 11:25:37;;;;;;;12.18;6.25;;;;;;;7.87;35.66;100978.72;1779807;79;21060;-57
2022/03/11 11:28:17;;;;;;;12.15;5.92;;;;;;;7.81;34.93;100983.22;1768687;80;21487;-59
2022/03/11 11:30:45;;;;;;;11.45;5.90;;;;;;;7.63;35.11;100983.68;1783516;80;21047;-65
2022/03/11 11:33:14;;;;;;;8.90;4.70;;;;;;;7.20;35.17;100979.95;1784609;80;21260;-57